Time;durP1;ratioP1;P1;durP2;ratioP2;P2;SDS_P1;SDS_P2;PMS_P1;PMS_P2;Temp;Humidity;BMP_temperature;BMP_pressure;BME280_temperature;BME280_humidity;BME280_pressure;Samples;Min_cycle;Max_cycle;Signal;HPM_P1;HPM_P2
2021/12/18 00:01:33;;;;;;;7.10;4.53;;;;;;;10.00;53.77;101147.38;4926238;29;20138;-69
2021/12/18 00:04:00;;;;;;;14.83;6.13;;;;;;;10.02;53.84;101159.13;4928134;29;20147;-63
2021/12/18 00:06:27;;;;;;;11.03;5.40;;;;;;;9.99;54.09;101156.84;4927271;29;20048;-62
2021/12/18 00:08:55;;;;;;;4.30;3.27;;;;;;;9.98;54.05;101152.34;4929000;29;20052;-62
2021/12/18 00:11:22;;;;;;;10.53;6.00;;;;;;;9.83;54.19;101132.69;4930671;29;20061;-64
2021/12/18 00:13:50;;;;;;;16.03;8.70;;;;;;;9.94;54.37;101156.78;4929272;29;20522;-66
2021/12/18 00:16:17;;;;;;;6.63;3.80;;;;;;;9.84;54.65;101159.47;4932605;29;20134;-60
2021/12/18 00:18:46;;;;;;;7.80;4.90;;;;;;;9.80;55.01;101158.31;4931284;29;20126;-61
2021/12/18 00:21:14;;;;;;;14.60;6.40;;;;;;;9.81;54.56;101154.41;4928985;29;20051;-60
2021/12/18 00:23:41;;;;;;;10.53;5.17;;;;;;;9.69;55.08;101138.66;4932287;29;20139;-60
2021/12/18 00:26:08;;;;;;;8.87;4.83;;;;;;;9.67;55.58;101154.78;4929583;29;20134;-65
2021/12/18 00:28:35;;;;;;;13.90;6.63;;;;;;;9.66;55.30;101143.91;4932364;29;20131;-63
2021/12/18 00:31:03;;;;;;;15.43;7.07;;;;;;;9.71;55.39;101152.34;4930902;29;20251;-65
2021/12/18 00:33:30;;;;;;;8.17;2.93;;;;;;;9.50;55.92;101137.28;4933617;29;20098;-64
2021/12/18 00:35:56;;;;;;;3.67;2.57;;;;;;;9.44;56.75;101152.28;4928703;29;20047;-66
2021/12/18 00:38:28;;;;;;;7.57;3.63;;;;;;;9.30;56.92;101140.69;4930210;29;20143;-61
2021/12/18 00:44:01;;;;;;;8.87;3.63;;;;;;;9.12;57.15;101115.88;4929270;29;20075;-63
2021/12/18 00:46:27;;;;;;;7.67;4.47;;;;;;;9.29;57.36;101138.13;4933381;29;20123;-65
2021/12/18 00:48:54;;;;;;;4.93;3.47;;;;;;;9.33;57.47;101142.09;4932267;29;20126;-63
2021/12/18 00:51:21;;;;;;;7.20;3.50;;;;;;;9.20;57.00;101112.66;4933529;29;20176;-68
2021/12/18 00:53:48;;;;;;;10.97;5.53;;;;;;;9.34;57.12;101136.25;4935559;29;20051;-67
2021/12/18 00:56:15;;;;;;;17.87;6.40;;;;;;;9.33;57.10;101134.56;4936430;29;20052;-67
2021/12/18 00:58:43;;;;;;;6.37;4.43;;;;;;;9.41;56.88;101138.88;4934783;29;20075;-68
2021/12/18 01:01:11;;;;;;;18.23;7.10;;;;;;;9.48;56.61;101137.56;4936123;29;20126;-68
2021/12/18 01:03:40;;;;;;;15.97;6.80;;;;;;;9.33;56.19;101095.53;4934766;29;20530;-67
2021/12/18 01:06:07;;;;;;;5.05;4.50;;;;;;;9.55;55.86;101128.16;4932626;29;20048;-67
2021/12/18 01:08:34;;;;;;;4.00;3.47;;;;;;;9.65;55.67;101131.91;4939257;29;20126;-67
2021/12/18 01:11:44;;;;;;;7.87;4.20;;;;;;;9.55;55.62;101120.63;4935794;29;20083;-65
2021/12/18 01:16:25;;;;;;;8.97;4.40;;;;;;;9.10;56.75;101088.28;4934581;29;20055;-69
2021/12/18 01:24:23;;;;;;;19.80;7.17;;;;;;;9.62;55.67;101132.44;4936057;29;20598;-68
2021/12/18 01:26:53;;;;;;;11.18;6.97;;;;;;;9.57;55.79;101135.19;4936730;29;20170;-64
2021/12/18 01:29:19;;;;;;;9.07;5.20;;;;;;;9.38;56.25;101117.06;4934281;29;20127;-65
2021/12/18 01:31:46;;;;;;;12.07;6.97;;;;;;;9.30;56.34;101112.81;4930970;29;20062;-65
2021/12/18 01:34:13;;;;;;;17.90;8.13;;;;;;;9.38;56.25;101120.69;4933926;29;20047;-64
2021/12/18 01:36:40;;;;;;;13.93;8.20;;;;;;;9.50;55.91;101137.28;4935059;29;20169;-64
2021/12/18 01:39:07;;;;;;;11.07;6.03;;;;;;;9.53;55.99;101128.41;4935391;29;20086;-64
2021/12/18 01:41:51;;;;;;;9.23;5.00;;;;;;;9.37;56.19;101110.66;4936298;29;20135;-63
2021/12/18 01:44:48;;;;;;;7.23;4.83;;;;;;;9.45;56.37;101128.88;4933969;29;20142;-63
2021/12/18 01:52:42;;;;;;;10.87;3.83;;;;;;;9.22;56.87;101100.13;4935253;29;20047;-68
2021/12/18 01:55:10;;;;;;;8.93;4.73;;;;;;;9.31;56.61;101099.72;4932852;29;20130;-67
2021/12/18 01:57:38;;;;;;;11.27;7.00;;;;;;;9.49;56.18;101110.53;4935065;29;20052;-68
2021/12/18 02:00:21;;;;;;;17.40;8.30;;;;;;;9.54;55.97;101107.81;4933813;29;20482;-68
2021/12/18 02:02:48;;;;;;;11.83;5.27;;;;;;;9.61;55.61;101111.25;4930272;29;20528;-66
2021/12/18 02:05:15;;;;;;;11.93;6.13;;;;;;;9.59;55.73;101109.81;4934126;29;20051;-66
2021/12/18 02:07:42;;;;;;;4.83;3.43;;;;;;;9.46;55.61;101095.16;4929714;29;20086;-61
2021/12/18 02:10:17;;;;;;;10.23;5.07;;;;;;;9.51;55.83;101107.50;4932258;29;20051;-61
2021/12/18 02:12:57;;;;;;;6.20;3.90;;;;;;;9.55;55.87;101120.63;4931792;29;20131;-61
2021/12/18 02:21:11;;;;;;;7.47;4.17;;;;;;;9.31;55.94;101100.53;4925423;29;20057;-59
2021/12/18 02:23:39;;;;;;;12.00;5.93;;;;;;;9.25;56.59;101121.91;4929518;29;20130;-61
2021/12/18 02:26:06;;;;;;;6.83;4.63;;;;;;;9.08;56.83;101111.94;4921508;29;20052;-61
2021/12/18 02:28:33;;;;;;;10.20;5.73;;;;;;;9.17;56.59;101124.31;4934870;29;20079;-63
2021/12/18 02:31:01;;;;;;;11.57;6.10;;;;;;;9.08;56.99;101121.13;4930953;29;23117;-62
2021/12/18 02:33:28;;;;;;;11.67;5.97;;;;;;;9.09;56.62;101114.44;4931679;29;20065;-63
2021/12/18 02:35:58;;;;;;;16.20;7.97;;;;;;;9.15;56.65;101130.13;4930201;29;20151;-61
2021/12/18 02:41:30;;;;;;;12.23;6.87;;;;;;;9.17;56.54;101130.72;4933119;29;20087;-62
2021/12/18 02:43:59;;;;;;;15.80;8.40;;;;;;;9.21;56.26;101134.69;4932626;29;20079;-65
2021/12/18 02:46:26;;;;;;;12.50;6.30;;;;;;;9.16;56.62;101123.50;4933638;29;20043;-68
2021/12/18 02:48:55;;;;;;;11.50;6.67;;;;;;;9.10;56.60;101118.94;4931440;29;20135;-65
2021/12/18 02:51:23;;;;;;;10.50;5.07;;;;;;;9.17;56.52;101116.81;4936079;29;20150;-65
2021/12/18 02:53:52;;;;;;;12.97;5.87;;;;;;;8.97;56.72;101094.22;4933077;29;20134;-66
2021/12/18 02:56:23;;;;;;;10.50;4.85;;;;;;;9.05;57.06;101121.63;4934241;29;20048;-64
2021/12/18 02:58:51;;;;;;;;;;;;;;;8.97;57.44;101119.28;4931390;29;20048;-68
2021/12/18 03:01:24;;;;;;;7.03;3.17;;;;;;;8.93;57.46;101123.69;4926550;29;20338;-68
2021/12/18 03:03:53;;;;;;;12.47;6.13;;;;;;;8.93;57.45;101123.69;4930578;29;20131;-67
2021/12/18 03:28:05;;;;;;;3.90;2.97;;;;;;;8.90;57.73;101115.84;4926373;29;20119;-61
2021/12/18 03:30:36;;;;;;;4.93;2.57;;;;;;;8.95;57.52;101121.47;4927227;29;20101;-62
2021/12/18 03:33:03;;;;;;;6.47;3.57;;;;;;;8.98;57.60;101126.53;4927568;29;20065;-59
2021/12/18 03:35:30;;;;;;;6.13;3.17;;;;;;;9.07;57.37;101132.53;4928063;29;20127;-60
2021/12/18 03:37:57;;;;;;;4.00;2.67;;;;;;;8.99;57.52;101122.66;4933468;29;20146;-60
2021/12/18 03:40:25;;;;;;;3.83;2.60;;;;;;;9.05;57.11;101127.19;4936525;29;20149;-58
2021/12/18 03:42:52;;;;;;;11.47;5.57;;;;;;;9.13;56.88;101126.78;4934566;29;20132;-61
2021/12/18 03:45:21;;;;;;;13.33;3.10;;;;;;;9.23;56.70;101126.94;4932133;29;20058;-59
2021/12/18 03:47:49;;;;;;;12.60;6.33;;;;;;;9.26;56.53;101131.13;4924508;29;20135;-58
2021/12/18 03:50:17;;;;;;;7.13;3.20;;;;;;;9.19;56.72;101128.50;4929739;29;20051;-65
2021/12/18 03:52:45;;;;;;;16.23;7.27;;;;;;;9.12;56.41;101113.94;4934113;29;20551;-64
2021/12/18 03:55:13;;;;;;;4.27;2.97;;;;;;;8.98;56.53;101079.19;4927496;29;20083;-63
2021/12/18 03:57:40;;;;;;;4.60;2.73;;;;;;;9.18;56.43;101126.00;4930369;29;20039;-65
2021/12/18 04:00:10;;;;;;;11.53;4.83;;;;;;;9.23;56.56;101121.34;4931671;29;20052;-66
2021/12/18 04:02:37;;;;;;;3.03;2.35;;;;;;;9.23;56.14;101121.34;4931396;29;20131;-63
2021/12/18 04:05:04;;;;;;;4.00;3.07;;;;;;;9.23;56.54;101123.28;4929149;29;20142;-64
2021/12/18 04:07:39;;;;;;;11.70;6.33;;;;;;;9.34;55.98;101127.06;4929089;29;20198;-60
2021/12/18 04:10:08;;;;;;;5.47;3.80;;;;;;;9.38;55.97;101119.88;4930842;29;20051;-61
2021/12/18 04:12:36;;;;;;;12.77;8.50;;;;;;;9.31;55.73;101106.13;4929127;29;20138;-60
2021/12/18 04:15:04;;;;;;;6.93;4.80;;;;;;;9.39;55.57;101115.97;4933149;29;20123;-67
2021/12/18 04:17:30;;;;;;;2.93;2.23;;;;;;;9.23;56.16;101112.13;4932963;29;20539;-60
2021/12/18 04:19:58;;;;;;;5.17;3.20;;;;;;;9.13;56.34;101120.38;4930737;29;20794;-61
2021/12/18 04:22:24;;;;;;;11.83;5.77;;;;;;;9.04;56.27;101114.38;4934759;29;20050;-59
2021/12/18 04:24:51;;;;;;;13.17;7.43;;;;;;;9.06;56.33;101114.97;4936844;29;20138;-61
2021/12/18 04:27:20;;;;;;;13.40;6.60;;;;;;;9.09;56.37;101119.16;4937533;29;20123;-62
2021/12/18 04:29:46;;;;;;;11.63;5.67;;;;;;;9.07;56.12;101119.44;4935158;29;20164;-62
2021/12/18 04:32:13;;;;;;;11.70;6.77;;;;;;;9.08;56.13;101121.13;4932328;29;20423;-62
2021/12/18 04:34:40;;;;;;;16.07;5.50;;;;;;;9.06;56.25;101116.91;4932550;29;20131;-63
2021/12/18 04:37:07;;;;;;;4.33;2.30;;;;;;;9.00;56.13;101122.41;4935673;29;20135;-61
2021/12/18 04:39:34;;;;;;;10.50;4.83;;;;;;;8.90;56.63;101121.41;4936053;29;20082;-61
2021/12/18 04:42:01;;;;;;;7.90;5.03;;;;;;;8.84;56.83;101119.66;4936889;29;20056;-60
2021/12/18 04:44:28;;;;;;;6.83;4.33;;;;;;;8.80;56.84;101118.47;4932769;29;20138;-61
2021/12/18 04:46:54;;;;;;;4.83;3.20;;;;;;;8.70;57.01;101114.44;4935485;29;20079;-61
2021/12/18 04:49:21;;;;;;;15.33;6.67;;;;;;;8.79;57.02;101128.78;4936596;29;20134;-61
2021/12/18 04:51:48;;;;;;;7.17;3.93;;;;;;;8.83;56.98;101129.13;4929902;29;20071;-61
2021/12/18 04:54:15;;;;;;;11.30;5.93;;;;;;;8.77;57.12;101114.25;4936903;29;20047;-60
2021/12/18 04:56:42;;;;;;;5.10;4.10;;;;;;;8.72;57.44;101125.34;4937458;29;20138;-60
2021/12/18 04:59:09;;;;;;;4.97;3.23;;;;;;;8.64;57.78;101112.66;4935293;29;20142;-62
2021/12/18 05:01:39;;;;;;;7.07;4.03;;;;;;;8.60;58.00;101130.13;4934464;29;20130;-62
2021/12/18 05:04:10;;;;;;;4.87;3.50;;;;;;;8.45;58.46;101116.81;4933711;29;20097;-62
2021/12/18 05:06:41;;;;;;;3.83;2.93;;;;;;;8.31;59.00;101105.16;4935044;29;20051;-62
2021/12/18 05:09:08;;;;;;;6.43;3.03;;;;;;;8.21;59.68;101122.50;4931143;29;20083;-62
2021/12/18 05:11:38;;;;;;;3.40;2.63;;;;;;;8.22;59.66;101126.13;4935385;29;20047;-62
2021/12/18 05:14:05;;;;;;;8.63;4.27;;;;;;;8.29;59.49;101116.50;4936092;29;20048;-64
2021/12/18 05:16:32;;;;;;;5.57;3.57;;;;;;;8.46;58.98;101130.47;4927660;29;20526;-66
2021/12/18 05:18:59;;;;;;;6.73;2.40;;;;;;;8.44;58.62;101106.75;4932073;29;20188;-66
2021/12/18 05:21:26;;;;;;;4.97;4.47;;;;;;;8.46;58.57;101097.06;4930745;29;20075;-64
2021/12/18 05:23:53;;;;;;;3.23;2.60;;;;;;;8.50;58.54;101109.38;4936512;29;20139;-64
2021/12/18 05:26:21;;;;;;;6.63;4.17;;;;;;;8.50;58.64;101114.09;4935172;29;20064;-66
2021/12/18 05:28:47;;;;;;;8.17;5.13;;;;;;;8.57;58.32;101125.91;4935444;29;20139;-65
2021/12/18 05:31:17;;;;;;;9.37;5.23;;;;;;;8.52;58.42;101123.91;4933784;29;20135;-67
2021/12/18 05:33:46;;;;;;;2.03;1.53;;;;;;;8.42;58.71;101117.31;4923802;29;20059;-63
2021/12/18 05:36:31;;;;;;;2.83;2.17;;;;;;;8.38;59.01;101121.72;4934446;29;20063;-63
2021/12/18 05:39:08;;;;;;;6.57;4.60;;;;;;;8.22;59.27;101118.63;4935322;29;20135;-70
2021/12/18 05:41:35;;;;;;;2.57;1.73;;;;;;;8.19;59.65;101127.47;4933740;29;20054;-67
2021/12/18 05:44:03;;;;;;;7.40;4.23;;;;;;;8.22;59.52;101128.91;4931882;29;20047;-64
2021/12/18 05:46:31;;;;;;;13.47;6.27;;;;;;;8.24;59.37;101122.00;4934758;29;20219;-67
2021/12/18 05:48:58;;;;;;;6.30;3.87;;;;;;;8.42;59.05;101134.03;4932598;29;20126;-72
2021/12/18 05:51:25;;;;;;;7.30;3.43;;;;;;;8.41;59.04;101141.53;4931402;29;20454;-70
2021/12/18 05:53:52;;;;;;;12.57;4.27;;;;;;;8.37;59.08;101131.09;4933548;29;20048;-68
2021/12/18 05:56:20;;;;;;;6.77;3.13;;;;;;;8.43;58.64;101130.13;4936187;29;20127;-67
2021/12/18 05:58:47;;;;;;;3.80;2.67;;;;;;;8.24;58.88;101101.69;4934258;29;20147;-68
2021/12/18 06:01:14;;;;;;;2.00;1.70;;;;;;;8.42;59.11;101134.84;4928071;29;20444;-68
2021/12/18 06:03:42;;;;;;;2.77;2.33;;;;;;;8.36;59.25;101141.38;4933694;29;20126;-69
2021/12/18 06:06:09;;;;;;;3.67;3.00;;;;;;;8.45;58.90;101141.88;4927914;29;20154;-69
2021/12/18 06:08:37;;;;;;;4.10;2.30;;;;;;;8.42;59.03;101145.16;4928147;29;20568;-68
2021/12/18 06:11:11;;;;;;;6.93;3.23;;;;;;;8.22;59.24;101124.19;4932968;29;20130;-67
2021/12/18 06:13:38;;;;;;;4.53;2.93;;;;;;;8.32;59.22;101143.00;4932178;29;20470;-68
2021/12/18 06:16:06;;;;;;;2.17;1.70;;;;;;;8.33;59.15;101133.53;4933125;29;20075;-65
2021/12/18 06:18:34;;;;;;;13.30;3.83;;;;;;;8.28;59.40;101130.69;4933339;29;20043;-67
2021/12/18 06:21:03;;;;;;;6.23;2.70;;;;;;;8.29;59.51;101144.34;4930906;29;20099;-63
2021/12/18 06:23:29;;;;;;;3.63;2.83;;;;;;;8.29;59.62;101135.97;4933152;29;20096;-79
2021/12/18 06:25:57;;;;;;;7.57;3.00;;;;;;;8.26;59.54;101128.13;4930312;29;20087;-74
2021/12/18 06:28:24;;;;;;;4.77;3.20;;;;;;;8.34;59.04;101132.44;4931930;29;20230;-69
2021/12/18 06:30:51;;;;;;;9.80;5.10;;;;;;;8.34;58.81;101126.03;4933455;29;20056;-67
2021/12/18 06:33:19;;;;;;;7.93;4.43;;;;;;;8.49;58.73;101143.88;4934025;29;20154;-64
2021/12/18 06:35:46;;;;;;;4.73;2.97;;;;;;;8.45;58.88;101144.66;4931634;29;20052;-82
2021/12/18 06:38:13;;;;;;;5.77;3.03;;;;;;;8.38;59.04;101138.41;4934492;29;20174;-75
2021/12/18 06:40:40;;;;;;;2.03;1.83;;;;;;;8.25;59.15;101122.84;4931357;29;20080;-75
2021/12/18 06:43:07;;;;;;;2.57;2.37;;;;;;;8.37;59.00;101142.22;4930268;29;20501;-68
2021/12/18 06:45:35;;;;;;;6.00;3.37;;;;;;;8.27;59.01;101140.97;4930175;29;20055;-68
2021/12/18 06:48:02;;;;;;;6.87;4.07;;;;;;;8.25;58.85;101137.59;4924616;29;20155;-63
2021/12/18 06:50:30;;;;;;;13.63;4.30;;;;;;;8.30;58.84;101148.78;4924953;29;20607;-58
2021/12/18 06:52:56;;;;;;;3.77;3.07;;;;;;;8.16;59.15;101136.31;4933288;29;20142;-73
2021/12/18 06:55:24;;;;;;;9.50;3.83;;;;;;;8.15;59.20;101151.31;4931113;29;20094;-71
2021/12/18 06:57:53;;;;;;;6.10;3.63;;;;;;;8.07;59.46;101144.22;4934086;29;20075;-69
2021/12/18 07:00:21;;;;;;;3.93;3.03;;;;;;;8.18;59.49;101153.59;4931216;29;20075;-62
2021/12/18 07:02:48;;;;;;;3.27;2.67;;;;;;;8.11;59.43;101150.13;4929861;29;20052;-67
2021/12/18 07:05:16;;;;;;;6.03;3.10;;;;;;;8.11;59.78;101164.03;4930024;29;20051;-65
2021/12/18 07:07:43;;;;;;;4.17;3.33;;;;;;;7.99;60.23;101168.81;4933357;29;20155;-66
2021/12/18 07:10:12;;;;;;;6.47;3.97;;;;;;;8.09;59.86;101163.44;4935091;29;20468;-69
2021/12/18 07:12:41;;;;;;;4.60;3.67;;;;;;;8.12;59.86;101174.06;4932795;29;20126;-72
2021/12/18 07:15:09;;;;;;;8.80;4.80;;;;;;;8.14;59.59;101171.91;4931882;29;20134;-62
2021/12/18 07:17:37;;;;;;;8.60;3.93;;;;;;;8.17;59.36;101165.84;4935116;29;20456;-62
2021/12/18 07:20:06;;;;;;;7.00;4.07;;;;;;;8.15;59.41;101164.38;4931064;29;20096;-62
2021/12/18 07:22:32;;;;;;;6.20;3.67;;;;;;;8.15;59.37;101167.16;4926160;29;20139;-69
2021/12/18 07:24:59;;;;;;;2.63;1.90;;;;;;;8.11;59.45;101168.75;4934470;29;20064;-72
2021/12/18 07:27:26;;;;;;;5.17;2.93;;;;;;;8.17;59.55;101181.66;4932943;29;20143;-65
2021/12/18 07:29:53;;;;;;;9.27;3.93;;;;;;;8.14;59.66;101191.38;4931475;29;20326;-67
2021/12/18 07:32:20;;;;;;;13.23;5.97;;;;;;;8.25;59.27;101190.47;4931942;29;20453;-62
2021/12/18 07:34:52;;;;;;;9.40;5.30;;;;;;;8.31;58.71;101174.72;4926851;29;20143;-66
2021/12/18 07:37:19;;;;;;;8.07;3.73;;;;;;;8.37;58.81;101192.31;4926781;29;20496;-73
2021/12/18 07:39:45;;;;;;;4.50;2.60;;;;;;;8.12;59.40;101187.97;4927980;29;20088;-64
2021/12/18 07:42:12;;;;;;;8.20;4.27;;;;;;;8.14;59.65;101201.66;4933402;29;20138;-69
2021/12/18 07:44:40;;;;;;;9.30;4.83;;;;;;;7.97;59.66;101188.53;4929103;29;23880;-61
2021/12/18 07:47:07;;;;;;;4.57;3.23;;;;;;;7.96;60.11;101197.09;4924778;29;20178;-67
2021/12/18 07:49:38;;;;;;;13.85;5.97;;;;;;;7.94;60.09;101193.75;4932459;29;20449;-67
2021/12/18 07:52:06;;;;;;;5.47;3.70;;;;;;;7.97;60.18;101198.81;4932721;29;20071;-65
2021/12/18 07:54:34;;;;;;;2.10;1.90;;;;;;;7.90;60.83;101203.66;4927582;29;20062;-62
2021/12/18 07:57:01;;;;;;;3.17;2.83;;;;;;;7.85;60.79;101204.41;4929488;29;20125;-68
2021/12/18 07:59:28;;;;;;;5.53;2.93;;;;;;;7.84;61.04;101211.06;4931620;29;20122;-63
2021/12/18 08:01:55;;;;;;;4.30;2.10;;;;;;;7.70;61.15;101199.38;4929754;29;20508;-67
2021/12/18 08:04:22;;;;;;;5.33;3.20;;;;;;;7.74;61.13;101199.72;4926910;29;20043;-58
2021/12/18 08:06:49;;;;;;;5.23;4.00;;;;;;;7.74;61.21;101203.34;4926548;29;20048;-58
2021/12/18 08:09:16;;;;;;;3.43;2.37;;;;;;;7.98;60.61;101217.19;4924476;29;20047;-58
2021/12/18 08:11:43;;;;;;;3.03;2.73;;;;;;;7.80;60.85;101195.97;4932737;29;20073;-59
2021/12/18 08:14:10;;;;;;;3.37;2.70;;;;;;;7.91;60.89;101216.50;4930881;29;20183;-58
2021/12/18 08:16:37;;;;;;;5.30;3.10;;;;;;;7.90;60.93;101212.88;4925270;29;20048;-58
2021/12/18 08:19:04;;;;;;;8.67;5.50;;;;;;;8.04;60.50;101210.63;4922014;29;20123;-59
2021/12/18 08:21:31;;;;;;;3.33;2.77;;;;;;;8.14;60.45;101219.19;4922563;29;20142;-58
2021/12/18 08:23:58;;;;;;;4.13;2.50;;;;;;;8.26;60.01;101225.53;4927046;29;20047;-58
2021/12/18 08:26:26;;;;;;;15.17;5.40;;;;;;;8.23;59.86;101209.31;4931765;29;20567;-58
2021/12/18 08:28:53;;;;;;;12.33;3.20;;;;;;;8.29;59.78;101219.47;4931921;29;20690;-58
2021/12/18 08:31:19;;;;;;;7.20;3.90;;;;;;;8.30;59.71;101215.56;4931477;29;20131;-58
2021/12/18 08:33:46;;;;;;;5.17;2.60;;;;;;;8.36;59.52;101210.97;4932698;29;20143;-58
2021/12/18 08:36:13;;;;;;;8.93;4.97;;;;;;;8.47;59.17;101217.59;4931994;29;20264;-59
2021/12/18 08:38:40;;;;;;;4.87;2.80;;;;;;;8.44;59.19;101218.94;4929958;29;20836;-59
2021/12/18 08:41:08;;;;;;;7.43;4.23;;;;;;;8.51;58.91;101221.56;4931509;29;20134;-59
2021/12/18 08:43:35;;;;;;;8.07;3.63;;;;;;;8.52;59.04;101223.28;4932608;29;20135;-59
2021/12/18 08:46:02;;;;;;;9.87;5.17;;;;;;;8.56;59.09;101235.59;4931480;29;20448;-58
2021/12/18 08:48:29;;;;;;;3.13;2.50;;;;;;;8.65;58.82;101228.53;4929216;29;20148;-59
2021/12/18 08:50:56;;;;;;;3.67;3.00;;;;;;;8.62;59.19;101234.59;4931907;29;20547;-59
2021/12/18 08:53:23;;;;;;;5.80;3.40;;;;;;;8.54;59.25;101238.59;4931566;29;20508;-58
2021/12/18 08:55:50;;;;;;;5.60;3.00;;;;;;;8.63;58.86;101218.72;4929245;29;20563;-60
2021/12/18 08:58:17;;;;;;;13.63;4.70;;;;;;;8.74;58.83;101223.38;4931354;29;20123;-59
2021/12/18 09:00:44;;;;;;;9.37;4.63;;;;;;;8.94;58.39;101246.00;4931119;29;20571;-57
2021/12/18 09:03:12;;;;;;;8.27;4.57;;;;;;;9.04;58.17;101236.97;4931229;29;20099;-57
2021/12/18 09:05:39;;;;;;;4.50;3.33;;;;;;;9.23;58.16;101245.88;4933408;29;20044;-58
2021/12/18 09:08:06;;;;;;;3.00;2.73;;;;;;;9.34;58.23;101232.97;4935644;29;20091;-59
2021/12/18 09:10:33;;;;;;;3.77;2.03;;;;;;;9.71;57.72;101253.59;4935132;29;20127;-60
2021/12/18 09:13:00;;;;;;;5.70;3.53;;;;;;;9.66;56.98;101234.00;4935027;29;20475;-56
2021/12/18 09:15:27;;;;;;;7.97;4.57;;;;;;;9.86;56.57;101249.31;4936660;29;20058;-59
2021/12/18 09:17:54;;;;;;;4.87;3.43;;;;;;;9.85;56.41;101253.22;4933674;29;20476;-58
2021/12/18 09:20:21;;;;;;;3.43;2.23;;;;;;;9.78;56.37;101264.56;4934774;29;20048;-57
2021/12/18 09:22:48;;;;;;;3.73;2.43;;;;;;;9.91;56.24;101263.31;4934482;29;20047;-59
2021/12/18 09:25:16;;;;;;;7.70;4.07;;;;;;;10.07;56.46;101258.78;4937617;29;20122;-59
2021/12/18 09:27:43;;;;;;;3.90;2.43;;;;;;;10.54;55.91;101261.88;4934334;29;20138;-59
2021/12/18 09:30:13;;;;;;;4.40;3.43;;;;;;;10.97;54.92;101253.63;4932007;29;20801;-58
2021/12/18 09:32:42;;;;;;;7.63;3.67;;;;;;;11.59;53.92;101233.41;4933899;29;20075;-58
2021/12/18 09:35:10;;;;;;;16.07;6.43;;;;;;;11.99;53.04;101227.19;4933606;29;20071;-59
2021/12/18 09:37:38;;;;;;;11.07;5.83;;;;;;;12.89;51.90;101265.22;4934079;29;20051;-59
2021/12/18 09:40:07;;;;;;;6.63;4.00;;;;;;;13.25;51.08;101266.13;4934461;29;20142;-59
2021/12/18 09:42:34;;;;;;;7.37;3.40;;;;;;;13.19;50.19;101276.44;4935296;29;20550;-59
2021/12/18 09:45:00;;;;;;;7.60;5.20;;;;;;;13.39;49.64;101261.59;4935377;29;20065;-59
2021/12/18 09:47:29;;;;;;;10.40;6.27;;;;;;;14.08;49.25;101259.19;4935390;29;20073;-59
2021/12/18 09:49:57;;;;;;;12.07;6.57;;;;;;;14.87;48.28;101258.25;4935375;29;20099;-59
2021/12/18 09:52:25;;;;;;;10.50;5.40;;;;;;;15.60;47.92;101259.28;4934933;29;20079;-59
2021/12/18 09:54:56;;;;;;;5.33;3.23;;;;;;;15.50;46.20;101263.03;4935179;29;20126;-59
2021/12/18 09:57:24;;;;;;;11.73;6.20;;;;;;;15.65;45.71;101262.88;4931631;29;20083;-59
2021/12/18 09:59:51;;;;;;;9.63;5.03;;;;;;;15.95;45.23;101262.88;4932628;29;20063;-59
2021/12/18 10:02:18;;;;;;;8.27;5.10;;;;;;;15.81;44.33;101263.59;4932281;29;20047;-59
2021/12/18 10:04:45;;;;;;;11.23;6.47;;;;;;;15.79;44.27;101274.28;4933887;29;20131;-57
2021/12/18 10:07:19;;;;;;;8.77;4.93;;;;;;;15.97;44.26;101280.31;4933292;29;20075;-59
2021/12/18 10:09:50;;;;;;;9.80;5.90;;;;;;;15.84;43.74;101268.63;4934595;29;20420;-58
2021/12/18 10:12:35;;;;;;;10.90;5.17;;;;;;;15.21;44.09;101184.22;4933491;29;20138;-58
2021/12/18 10:15:12;;;;;;;8.93;4.85;;;;;;;15.90;43.45;101262.91;4931182;29;20127;-58
2021/12/18 10:17:42;;;;;;;9.20;5.38;;;;;;;15.82;43.30;101254.00;4932483;29;20980;-59
2021/12/18 10:20:09;;;;;;;5.85;4.32;;;;;;;15.83;43.38;101285.84;4934264;29;20131;-59
2021/12/18 10:23:03;;;;;;;13.27;5.90;;;;;;;15.82;43.70;101273.69;4933006;29;20083;-59
2021/12/18 10:25:38;;;;;;;3.90;2.90;;;;;;;15.93;43.23;101282.91;4934135;29;20470;-60
2021/12/18 10:28:15;;;;;;;9.40;4.77;;;;;;;15.84;43.25;101265.81;4935317;29;20115;-59
2021/12/18 10:30:52;;;;;;;9.55;6.20;;;;;;;16.01;42.83;101278.59;4930813;29;20485;-60
2021/12/18 10:33:19;;;;;;;12.77;6.10;;;;;;;16.32;42.91;101281.88;4933076;29;20127;-60
2021/12/18 10:35:46;;;;;;;11.93;6.95;;;;;;;16.46;42.53;101281.97;4933656;29;20054;-58
2021/12/18 10:38:34;;;;;;;11.18;7.10;;;;;;;16.69;42.20;101272.63;4932348;29;20139;-62
2021/12/18 10:41:01;;;;;;;5.30;4.43;;;;;;;16.86;41.92;101286.22;4926894;29;20079;-61
2021/12/18 10:43:53;;;;;;;11.38;5.53;;;;;;;16.56;41.39;101276.19;4934289;29;20138;-61
2021/12/18 10:46:21;;;;;;;7.90;5.70;;;;;;;16.69;41.64;101283.91;4929258;29;20060;-59
2021/12/18 10:49:18;;;;;;;9.77;3.15;;;;;;;16.74;41.46;101275.38;4933795;29;20063;-58
2021/12/18 10:51:56;;;;;;;11.30;5.35;;;;;;;17.00;41.20;101286.28;4923815;29;20590;-59
2021/12/18 10:54:23;;;;;;;10.20;5.72;;;;;;;17.31;40.72;101285.78;4933832;29;20127;-59
2021/12/18 10:56:53;;;;;;;11.95;6.53;;;;;;;17.63;40.21;101266.00;4932725;29;20488;-59
2021/12/18 10:59:31;;;;;;;6.90;4.28;;;;;;;17.96;39.19;101269.63;4931048;29;20150;-59
2021/12/18 11:02:01;;;;;;;7.07;4.53;;;;;;;17.90;39.19;101265.22;4928956;29;20051;-60
2021/12/18 11:04:39;;;;;;;10.73;6.10;;;;;;;18.23;38.91;101268.81;4933486;29;20086;-59
2021/12/18 11:07:29;;;;;;;4.65;3.83;;;;;;;18.57;38.67;101267.50;4932088;29;20138;-59
2021/12/18 11:10:18;;;;;;;16.35;6.95;;;;;;;18.76;38.32;101266.53;4933532;29;20130;-59
2021/12/18 11:15:34;;;;;;;10.65;6.93;;;;;;;19.56;37.36;101271.34;4931263;29;20139;-59
2021/12/18 11:18:01;;;;;;;11.52;5.93;;;;;;;19.97;36.65;101258.91;4930787;29;20411;-57
2021/12/18 11:20:28;;;;;;;6.32;4.70;;;;;;;19.71;36.32;101266.44;4934396;29;20526;-57
2021/12/18 11:22:55;;;;;;;11.40;6.70;;;;;;;19.49;36.18;101261.63;4931520;29;20130;-57
2021/12/18 11:25:25;;;;;;;10.70;4.82;;;;;;;19.62;36.34;101246.53;4933187;29;20477;-57
2021/12/18 11:27:55;;;;;;;12.20;7.30;;;;;;;19.88;36.35;101232.53;4931500;29;20075;-58
2021/12/18 11:30:22;;;;;;;5.65;3.65;;;;;;;20.48;35.95;101237.56;4932060;29;20163;-59
2021/12/18 11:32:54;;;;;;;8.20;3.00;;;;;;;19.99;34.95;101231.06;4932404;29;20082;-58
2021/12/18 11:35:23;;;;;;;12.50;7.20;;;;;;;19.67;35.08;101231.44;4931675;29;20067;-58
2021/12/18 11:37:55;;;;;;;8.05;5.13;;;;;;;19.32;35.43;101240.53;4933106;29;20138;-58
2021/12/18 11:40:27;;;;;;;16.52;4.68;;;;;;;19.37;35.20;101236.72;4931875;29;20130;-58
2021/12/18 11:42:54;;;;;;;8.88;4.80;;;;;;;19.12;35.53;101239.06;4933478;29;20066;-58
2021/12/18 11:45:31;;;;;;;5.35;4.07;;;;;;;19.21;35.28;101224.13;4931056;29;20128;-58
2021/12/18 11:48:00;;;;;;;7.82;4.65;;;;;;;19.30;35.55;101222.19;4930012;29;20514;-58
2021/12/18 11:50:34;;;;;;;7.05;4.25;;;;;;;19.53;35.33;101226.66;4943549;29;20071;-58
2021/12/18 11:53:01;;;;;;;5.80;3.65;;;;;;;19.65;34.94;101221.25;4934753;29;20082;-58
2021/12/18 11:55:36;;;;;;;12.13;6.07;;;;;;;19.64;34.87;101221.56;4934221;29;20051;-59
2021/12/18 11:58:12;;;;;;;9.05;5.43;;;;;;;19.59;34.31;101199.88;4933874;29;20146;-59
2021/12/18 12:00:44;;;;;;;6.13;4.90;;;;;;;19.58;34.75;101226.50;4933830;29;20048;-59
2021/12/18 12:03:26;;;;;;;6.25;4.13;;;;;;;19.70;34.98;101208.13;4934112;29;20075;-59
2021/12/18 12:05:54;;;;;;;5.43;3.78;;;;;;;19.69;34.63;101209.25;4933926;29;20047;-59
2021/12/18 12:08:39;;;;;;;8.20;6.03;;;;;;;19.82;34.43;101199.81;4933622;29;20448;-59
2021/12/18 12:11:17;;;;;;;9.00;5.93;;;;;;;20.20;33.90;101194.41;4934481;29;20052;-59
2021/12/18 12:13:58;;;;;;;12.02;7.20;;;;;;;20.33;33.63;101201.13;4933864;29;20060;-59
2021/12/18 12:16:44;;;;;;;9.27;6.20;;;;;;;20.49;33.79;101195.81;4933475;29;20056;-59
2021/12/18 12:19:12;;;;;;;7.95;5.88;;;;;;;20.56;33.30;101187.69;4933139;29;20083;-59
2021/12/18 12:21:44;;;;;;;11.75;6.68;;;;;;;20.61;33.33;101175.31;4933466;29;20123;-59
2021/12/18 12:24:13;;;;;;;9.55;6.55;;;;;;;20.56;33.31;101174.31;4933051;29;20143;-59
2021/12/18 12:26:40;;;;;;;3.83;3.53;;;;;;;20.39;33.24;101179.94;4932728;29;20039;-59
2021/12/18 12:29:09;;;;;;;9.40;4.95;;;;;;;20.09;33.60;101148.53;4952270;28;20150;-59